createdAt,value
2019-05-15T00:04:15.059Z,3.70
2019-05-15T00:09:18.893Z,3.70
2019-05-15T00:14:20.128Z,3.60
2019-05-15T00:19:21.792Z,3.40
2019-05-15T00:24:23.475Z,3.40
2019-05-15T00:29:24.957Z,3.50
2019-05-15T00:34:28.461Z,3.40
2019-05-15T00:39:29.907Z,3.60
2019-05-15T00:44:31.469Z,3.50
2019-05-15T00:49:33.427Z,3.40
2019-05-15T00:54:34.933Z,3.40
2019-05-15T00:59:38.817Z,3.40
2019-05-15T01:04:39.925Z,3.40
2019-05-15T01:09:41.540Z,3.20
2019-05-15T01:14:43.128Z,3.10
2019-05-15T01:19:44.926Z,3.10
2019-05-15T01:24:48.504Z,2.90
2019-05-15T01:29:50.000Z,3.00
2019-05-15T01:34:51.498Z,2.90
2019-05-15T01:39:53.121Z,3.10
2019-05-15T01:44:54.702Z,3.10
2019-05-15T01:49:58.242Z,3.20
2019-05-15T01:54:59.801Z,3.30
2019-05-15T02:00:02.485Z,3.30
2019-05-15T02:05:05.156Z,3.20
2019-05-15T02:10:09.103Z,3.10
2019-05-15T02:15:11.365Z,3.10
2019-05-15T02:20:13.655Z,3.00
2019-05-15T02:25:15.444Z,2.80
2019-05-15T02:30:27.852Z,2.80
2019-05-15T02:35:20.718Z,2.60
2019-05-15T02:40:22.414Z,2.50
2019-05-15T02:45:24.231Z,2.50
2019-05-15T02:50:28.890Z,2.40
2019-05-15T02:55:29.826Z,2.30
2019-05-15T03:00:41.669Z,2.10
2019-05-15T03:05:35.231Z,2.10
2019-05-15T03:10:40.283Z,2.10
2019-05-15T03:15:40.974Z,2.20
2019-05-15T03:20:42.729Z,2.00
2019-05-15T03:25:44.346Z,2.00
2019-05-15T03:35:54.583Z,2.40
2019-05-15T03:40:52.914Z,2.60
2019-05-15T03:45:54.394Z,2.80
2019-05-15T03:50:56.080Z,3.00
2019-05-15T03:55:58.888Z,3.10
2019-05-15T04:01:01.061Z,3.10
2019-05-15T04:06:02.920Z,3.30
2019-05-15T04:11:04.402Z,3.40
2019-05-15T04:16:06.036Z,3.50
2019-05-15T04:21:09.293Z,3.60
2019-05-15T04:26:12.943Z,3.90
2019-05-15T04:31:14.454Z,3.80
2019-05-15T04:36:18.887Z,4.00
2019-05-15T04:41:21.762Z,4.30
2019-05-15T04:46:23.457Z,4.20
2019-05-15T04:51:24.961Z,4.20
2019-05-15T04:56:29.262Z,4.20
2019-05-15T05:01:30.004Z,4.60
2019-05-15T05:06:32.575Z,4.70
2019-05-15T05:11:34.772Z,5.00
2019-05-15T05:16:38.974Z,5.20
2019-05-15T05:21:40.238Z,5.30
2019-05-15T05:26:41.826Z,5.50
2019-05-15T05:31:43.322Z,5.80
2019-05-15T05:36:45.224Z,6.00
2019-05-15T05:41:48.699Z,6.30
2019-05-15T05:46:50.517Z,6.40
2019-05-15T05:51:52.125Z,6.80
2019-05-15T05:56:53.698Z,7.00
2019-05-15T06:01:55.519Z,7.30
2019-05-15T06:07:09.204Z,7.60
2019-05-15T06:12:00.904Z,8.00
2019-05-15T06:17:02.626Z,8.10
2019-05-15T06:22:04.301Z,8.20
2019-05-15T06:27:08.052Z,8.40
2019-05-15T06:32:09.390Z,8.30
2019-05-15T06:37:11.307Z,8.40
2019-05-15T06:42:12.859Z,8.50
2019-05-15T06:47:14.345Z,8.80
2019-05-15T06:52:17.993Z,9.00
2019-05-15T06:57:19.636Z,8.90
2019-05-15T07:02:21.128Z,8.90
2019-05-15T07:07:22.760Z,9.20
2019-05-15T07:12:24.544Z,9.10
2019-05-15T07:17:26.028Z,9.30
2019-05-15T07:22:28.921Z,9.40
2019-05-15T07:27:30.609Z,9.50
2019-05-15T07:32:32.087Z,9.60
2019-05-15T07:37:33.691Z,9.70
2019-05-15T07:42:35.183Z,9.90
2019-05-15T07:47:38.672Z,10.30
2019-05-15T07:52:40.978Z,10.50
2019-05-15T07:57:42.473Z,10.90
2019-05-15T08:02:44.243Z,11.40
2019-05-15T08:07:46.143Z,11.70
2019-05-15T08:12:49.487Z,11.50
2019-05-15T08:18:03.957Z,11.40
2019-05-15T08:22:54.853Z,11.40
2019-05-15T08:27:58.979Z,11.20
2019-05-15T08:33:00.161Z,11.30
2019-05-15T08:38:01.838Z,11.50
2019-05-15T08:43:03.954Z,11.80
2019-05-15T08:48:05.500Z,11.70
2019-05-15T08:53:08.386Z,11.70
2019-05-15T08:58:13.854Z,12.00
2019-05-15T09:03:13.538Z,12.10
2019-05-15T09:08:15.099Z,12.10
2019-05-15T09:13:18.825Z,12.10
2019-05-15T09:18:20.592Z,12.10
2019-05-15T09:23:22.397Z,12.20
2019-05-15T09:28:23.909Z,12.30
2019-05-15T09:33:25.504Z,12.50
2019-05-15T09:38:28.989Z,12.20
2019-05-15T09:43:30.513Z,12.40
2019-05-15T09:48:32.104Z,12.70
2019-05-15T09:53:33.520Z,12.60
2019-05-15T09:58:37.926Z,12.70
2019-05-15T10:03:43.665Z,12.90
2019-05-15T10:08:42.556Z,13.00
2019-05-15T10:13:44.144Z,12.90
2019-05-15T10:18:50.455Z,13.00
2019-05-15T10:23:49.627Z,13.50
2019-05-15T10:28:51.431Z,13.20
2019-05-15T10:33:53.306Z,13.50
2019-05-15T10:38:54.961Z,13.70
2019-05-15T10:43:57.798Z,13.50
2019-05-15T10:49:00.165Z,13.80
2019-05-15T10:54:01.868Z,13.70
2019-05-15T10:59:03.878Z,13.70
2019-05-15T11:04:08.895Z,13.90
2019-05-15T11:09:10.017Z,14.00
2019-05-15T11:14:11.740Z,13.80
2019-05-15T11:19:16.179Z,13.70
2019-05-15T11:24:19.606Z,13.80
2019-05-15T11:29:21.378Z,14.20
2019-05-15T11:34:22.874Z,14.10
2019-05-15T11:39:24.653Z,13.90
2019-05-15T11:44:28.298Z,13.80
2019-05-15T11:49:29.937Z,13.70
2019-05-15T11:54:31.431Z,13.50
2019-05-15T11:59:33.108Z,13.50
2019-05-15T12:04:34.787Z,13.40
2019-05-15T12:09:38.788Z,13.20
2019-05-15T12:14:40.013Z,13.20
2019-05-15T12:19:41.605Z,13.00
2019-05-15T12:24:43.296Z,13.10
2019-05-15T12:29:44.885Z,12.90
2019-05-15T12:34:49.255Z,12.70
2019-05-15T13:00:10.037Z,13.30
2019-05-15T13:05:11.712Z,13.50
2019-05-15T13:10:14.599Z,13.50
2019-05-15T13:15:18.786Z,13.60
2019-05-15T13:20:20.000Z,14.10
2019-05-15T13:25:23.292Z,14.30
2019-05-15T13:30:25.802Z,14.60
2019-05-15T13:35:28.502Z,14.50
2019-05-15T13:40:37.156Z,14.50
2019-05-15T13:45:33.879Z,14.50
2019-05-15T13:50:35.369Z,14.70
2019-05-15T13:55:41.377Z,14.40
2019-05-15T14:00:40.630Z,14.10
2019-05-15T14:05:45.172Z,14.00
2019-05-15T14:10:48.799Z,13.70
2019-05-15T14:15:50.780Z,13.70
2019-05-15T14:20:52.369Z,13.70
2019-05-15T14:25:54.083Z,13.60
2019-05-15T14:30:56.275Z,13.50
2019-05-15T14:35:59.524Z,13.60
2019-05-15T14:41:01.573Z,13.70
2019-05-15T14:46:03.274Z,13.90
2019-05-15T14:51:04.894Z,13.70
2019-05-15T14:56:08.457Z,13.60
2019-05-15T15:01:12.160Z,13.50
2019-05-15T15:06:13.485Z,13.80
2019-05-15T15:11:17.923Z,13.70
2019-05-15T15:16:19.531Z,13.50
2019-05-15T15:21:22.702Z,13.60
2019-05-15T15:26:24.585Z,13.20
2019-05-15T15:31:28.707Z,13.30
2019-05-15T15:36:29.891Z,13.00
2019-05-15T15:41:31.377Z,12.80
2019-05-15T15:46:32.874Z,12.90
2019-05-15T15:51:34.570Z,12.70
2019-05-15T15:56:36.165Z,12.70
2019-05-15T16:01:38.971Z,12.80
2019-05-15T16:06:40.982Z,12.60
2019-05-15T16:11:42.537Z,12.50
2019-05-15T16:16:44.038Z,12.40
2019-05-15T16:21:45.624Z,12.40
2019-05-15T16:26:49.655Z,12.30
2019-05-15T16:31:51.054Z,11.90
2019-05-15T16:36:52.530Z,11.70
2019-05-15T16:41:54.012Z,11.60
2019-05-15T16:46:55.916Z,11.40
2019-05-15T16:51:58.314Z,11.30
2019-05-15T16:57:00.085Z,10.50
2019-05-15T17:02:01.948Z,10.40
2019-05-15T17:07:03.604Z,10.20
2019-05-15T17:12:08.548Z,10.00
2019-05-15T17:17:08.880Z,10.00
2019-05-15T17:22:10.371Z,10.10
2019-05-15T17:27:12.419Z,10.10
2019-05-15T17:32:14.221Z,10.20
2019-05-15T17:37:17.844Z,10.10
2019-05-15T17:42:19.419Z,10.00
2019-05-15T17:47:20.987Z,10.00
2019-05-15T17:52:22.596Z,10.00
2019-05-15T17:57:24.196Z,10.10
2019-05-15T18:02:28.416Z,10.10
2019-05-15T18:07:29.082Z,9.80
2019-05-15T18:12:30.643Z,9.90
2019-05-15T18:17:32.254Z,9.80
2019-05-15T18:22:33.973Z,9.80
2019-05-15T18:27:35.466Z,9.80
2019-05-15T18:32:39.053Z,9.80
2019-05-15T18:37:40.663Z,9.70
2019-05-15T18:42:42.148Z,9.70
2019-05-15T18:47:43.833Z,9.60
2019-05-15T18:52:45.722Z,9.60
2019-05-15T18:57:48.670Z,9.60
2019-05-15T19:02:50.615Z,9.50
2019-05-15T19:07:52.132Z,9.60
2019-05-15T19:12:53.613Z,9.60
2019-05-15T19:17:55.115Z,9.50
2019-05-15T19:22:58.726Z,9.50
2019-05-15T19:28:00.232Z,9.50
2019-05-15T19:33:01.939Z,9.40
2019-05-15T19:38:03.427Z,9.50
2019-05-15T19:43:05.316Z,9.40
2019-05-15T19:48:08.784Z,9.40
2019-05-15T19:53:10.351Z,9.40
2019-05-15T19:58:11.833Z,9.40
2019-05-15T20:03:13.409Z,9.30
2019-05-15T20:08:14.919Z,9.30
2019-05-15T20:13:18.361Z,9.20
2019-05-15T20:18:19.886Z,9.20
2019-05-15T20:23:21.469Z,9.20
2019-05-15T20:28:23.051Z,9.20
2019-05-15T20:33:25.358Z,9.30
2019-05-15T20:38:28.535Z,9.30
2019-05-15T20:43:30.333Z,9.20
2019-05-15T20:48:32.037Z,9.20
2019-05-15T20:53:33.526Z,9.10
2019-05-15T20:58:35.001Z,9.20
2019-05-15T21:03:36.693Z,9.20
2019-05-15T21:08:38.185Z,9.30
2019-05-15T21:13:39.740Z,9.30
2019-05-15T21:18:41.669Z,9.30
2019-05-15T21:23:43.273Z,9.30
2019-05-15T21:28:44.765Z,9.30
2019-05-15T21:33:48.113Z,9.20
2019-05-15T21:38:50.099Z,9.20
2019-05-15T21:43:51.676Z,9.10
2019-05-15T21:48:53.176Z,9.10
2019-05-15T21:53:54.676Z,9.20
2019-05-15T21:58:58.112Z,9.10
2019-05-15T22:03:59.666Z,9.20
2019-05-15T22:09:01.414Z,9.00
2019-05-15T22:14:03.286Z,9.00
2019-05-15T22:19:05.551Z,9.00
2019-05-15T22:24:08.780Z,9.00
2019-05-15T22:29:10.446Z,9.00
2019-05-15T22:34:12.134Z,8.80
2019-05-15T22:39:13.614Z,8.60
2019-05-15T22:44:15.290Z,8.60
2019-05-15T22:49:18.311Z,8.50
2019-05-15T22:54:20.491Z,8.50
2019-05-15T22:59:22.200Z,8.50
2019-05-15T23:04:23.689Z,8.20
2019-05-15T23:09:25.381Z,8.20
2019-05-15T23:14:28.754Z,8.20
2019-05-15T23:19:30.437Z,8.20
2019-05-15T23:24:31.929Z,8.10
2019-05-15T23:29:33.615Z,8.20
2019-05-15T23:34:35.115Z,8.10
2019-05-15T23:39:38.051Z,8.10
2019-05-15T23:44:39.948Z,8.00
2019-05-15T23:49:41.822Z,8.00
2019-05-15T23:54:43.598Z,8.00
2019-05-15T23:59:45.077Z,8.00
